Time;durP1;ratioP1;P1;durP2;ratioP2;P2;SDS_P1;SDS_P2;PMS_P1;PMS_P2;Temp;Humidity;BMP_temperature;BMP_pressure;BME280_temperature;BME280_humidity;BME280_pressure;Samples;Min_cycle;Max_cycle;Signal;HPM_P1;HPM_P2
2021/03/30 00:00:10;;;;;;;0.38;0.32;;;11.80;97.70;;;;;;4970862;28;20019;-80
2021/03/30 00:02:35;;;;;;;0.47;0.43;;;11.50;98.10;;;;;;4967780;28;20027;-79
2021/03/30 00:05:01;;;;;;;0.70;0.70;;;11.30;98.50;;;;;;4969083;28;20035;-80
2021/03/30 00:07:27;;;;;;;0.10;0.10;;;11.40;98.40;;;;;;4971438;28;20063;-80
2021/03/30 00:09:53;;;;;;;0.10;0.10;;;11.20;98.70;;;;;;4963992;28;20290;-80
2021/03/30 00:12:19;;;;;;;1.25;0.40;;;11.20;98.60;;;;;;4966540;28;20039;-80
2021/03/30 00:14:45;;;;;;;0.10;0.10;;;11.30;98.70;;;;;;4970700;28;20035;-80
2021/03/30 00:17:10;;;;;;;0.10;0.10;;;11.50;98.70;;;;;;4965022;28;20027;-80
2021/03/30 00:19:36;;;;;;;0.85;0.65;;;11.20;99.20;;;;;;4967948;28;20406;-80
2021/03/30 00:22:02;;;;;;;0.25;0.25;;;11.30;99.10;;;;;;4960448;28;20530;-80
2021/03/30 00:24:28;;;;;;;1.45;0.98;;;11.20;99.70;;;;;;4964075;28;20031;-80
2021/03/30 00:26:54;;;;;;;0.98;0.45;;;11.20;99.00;;;;;;4970340;28;20039;-81
2021/03/30 00:29:19;;;;;;;0.65;0.65;;;11.20;99.20;;;;;;4970693;28;20054;-80
2021/03/30 00:31:45;;;;;;;0.75;0.50;;;11.50;98.70;;;;;;4969233;28;20027;-81
2021/03/30 00:34:11;;;;;;;0.47;0.47;;;11.40;99.10;;;;;;4971941;28;20023;-81
2021/03/30 00:36:37;;;;;;;0.20;0.20;;;11.30;99.00;;;;;;4963854;28;20031;-81
2021/03/30 00:39:04;;;;;;;0.45;0.45;;;11.30;98.90;;;;;;4968714;28;20034;-81
2021/03/30 00:41:29;;;;;;;;;;;11.30;98.90;;;;;;4959404;28;20057;-80
2021/03/30 00:43:55;;;;;;;0.30;0.30;;;11.50;98.70;;;;;;4957901;28;20385;-80
2021/03/30 00:46:22;;;;;;;0.85;0.50;;;11.30;98.90;;;;;;4965278;28;20119;-80
2021/03/30 00:48:50;;;;;;;0.10;0.10;;;11.30;99.20;;;;;;4961899;28;20025;-80
2021/03/30 00:51:18;;;;;;;0.75;0.57;;;11.20;99.40;;;;;;4965505;28;20028;-80
2021/03/30 00:53:45;;;;;;;0.10;0.10;;;11.10;99.50;;;;;;4965349;28;20377;-80
2021/03/30 00:56:11;;;;;;;;;;;10.80;99.90;;;;;;4969416;28;20023;-80
2021/03/30 00:58:37;;;;;;;0.13;0.13;;;10.70;99.90;;;;;;4970932;28;19913;-81
2021/03/30 01:01:03;;;;;;;0.08;0.08;;;10.70;99.90;;;;;;4963053;28;20058;-81
2021/03/30 01:03:29;;;;;;;0.70;0.70;;;10.50;99.90;;;;;;4969848;28;20023;-81
2021/03/30 01:05:55;;;;;;;0.30;0.23;;;10.50;99.90;;;;;;4969960;28;20039;-81
2021/03/30 01:08:32;;;;;;;0.30;0.30;;;10.40;99.90;;;;;;4962656;28;20033;-80
2021/03/30 01:11:03;;;;;;;0.60;0.47;;;10.40;99.90;;;;;;4965022;28;20034;-80
2021/03/30 01:13:28;;;;;;;0.35;0.35;;;10.60;99.90;;;;;;4960735;28;20047;-80
2021/03/30 01:16:07;;;;;;;0.52;0.52;;;10.40;99.90;;;;;;4967065;28;20058;-80
2021/03/30 01:18:38;;;;;;;0.50;0.50;;;10.30;99.90;;;;;;4962418;28;20018;-80
2021/03/30 01:21:34;;;;;;;0.65;0.65;;;10.40;99.90;;;;;;4965857;28;20030;-80
2021/03/30 01:24:04;;;;;;;0.20;0.20;;;10.40;99.90;;;;;;4965283;28;20015;-80
2021/03/30 01:26:49;;;;;;;0.10;0.10;;;10.40;99.90;;;;;;4957857;28;20042;-80
2021/03/30 01:29:19;;;;;;;0.40;0.40;;;10.50;99.90;;;;;;4960708;28;20128;-80
2021/03/30 01:31:50;;;;;;;0.20;0.20;;;10.50;99.90;;;;;;4957071;28;20067;-80
2021/03/30 01:34:20;;;;;;;0.25;0.25;;;10.50;99.90;;;;;;4956212;28;20027;-80
2021/03/30 01:36:47;;;;;;;1.75;0.73;;;10.60;99.90;;;;;;4963698;28;20086;-80
2021/03/30 01:39:15;;;;;;;0.22;0.22;;;10.40;99.90;;;;;;4961009;28;20682;-80
2021/03/30 01:41:45;;;;;;;0.20;0.20;;;10.60;99.90;;;;;;4961940;28;20056;-81
2021/03/30 01:44:12;;;;;;;11.70;1.00;;;10.60;99.90;;;;;;4964158;28;20704;-81
2021/03/30 01:46:43;;;;;;;0.40;0.40;;;10.60;99.90;;;;;;4963943;28;21542;-80
2021/03/30 01:49:11;;;;;;;0.47;0.43;;;10.80;99.90;;;;;;4967130;28;20058;-80
2021/03/30 01:51:38;;;;;;;0.35;0.20;;;10.80;99.90;;;;;;4962046;28;20368;-80
2021/03/30 01:54:06;;;;;;;0.45;0.45;;;10.90;99.90;;;;;;4967225;28;20027;-80
2021/03/30 01:56:33;;;;;;;0.95;0.65;;;10.70;99.90;;;;;;4962136;28;20043;-80
2021/03/30 01:59:01;;;;;;;0.13;0.13;;;10.30;99.90;;;;;;4967954;28;20034;-80
2021/03/30 02:01:28;;;;;;;0.10;0.10;;;10.10;99.90;;;;;;4966866;28;20041;-80
2021/03/30 02:03:54;;;;;;;0.70;0.45;;;10.20;99.90;;;;;;4965143;28;20034;-80
2021/03/30 02:06:22;;;;;;;0.83;0.83;;;10.00;99.90;;;;;;4968975;28;20073;-80
2021/03/30 02:08:48;;;;;;;2.30;0.93;;;9.90;99.90;;;;;;4967369;28;20282;-80
2021/03/30 02:11:24;;;;;;;1.00;0.65;;;9.90;99.90;;;;;;4964770;28;20081;-80
2021/03/30 02:13:56;;;;;;;2.78;0.57;;;10.10;99.90;;;;;;4966259;28;20031;-80
2021/03/30 02:16:29;;;;;;;0.40;0.40;;;10.40;99.90;;;;;;4969215;28;20094;-80
2021/03/30 02:19:11;;;;;;;0.00;0.00;;;10.50;99.90;;;;;;4958628;28;20034;-80
2021/03/30 02:21:48;;;;;;;0.00;0.00;;;10.20;99.90;;;;;;4959651;28;20026;-80
2021/03/30 02:24:15;;;;;;;0.75;0.40;;;10.00;99.90;;;;;;4966354;28;20773;-80
2021/03/30 02:26:45;;;;;;;0.05;0.05;;;9.90;99.90;;;;;;4964216;28;20035;-80
2021/03/30 02:29:20;;;;;;;0.03;0.03;;;9.70;99.90;;;;;;4962975;28;20047;-80
2021/03/30 02:31:50;;;;;;;0.28;0.28;;;9.60;99.90;;;;;;4964742;28;20561;-80
2021/03/30 02:34:17;;;;;;;0.30;0.30;;;9.60;99.90;;;;;;4968129;28;20030;-80
2021/03/30 02:36:45;;;;;;;0.63;0.63;;;9.70;99.90;;;;;;4959864;28;20061;-80
2021/03/30 02:39:14;;;;;;;0.10;0.10;;;9.70;99.90;;;;;;4962652;28;20030;-80
2021/03/30 02:41:42;;;;;;;0.30;0.30;;;9.80;99.90;;;;;;4964540;28;20023;-80
2021/03/30 02:44:11;;;;;;;0.10;0.10;;;9.80;99.90;;;;;;4957678;28;20113;-80
2021/03/30 02:46:39;;;;;;;0.55;0.32;;;9.60;99.90;;;;;;4964216;28;20023;-80
2021/03/30 02:49:06;;;;;;;0.20;0.20;;;9.60;99.90;;;;;;4959111;28;20033;-80
2021/03/30 02:51:33;;;;;;;;;;;9.50;99.90;;;;;;4961689;28;20077;-80
2021/03/30 02:53:59;;;;;;;0.77;0.20;;;9.50;99.90;;;;;;4959199;28;20298;-80
2021/03/30 02:56:26;;;;;;;2.83;1.30;;;9.50;99.90;;;;;;4964368;28;20121;-80
2021/03/30 02:58:53;;;;;;;0.00;0.00;;;9.40;99.90;;;;;;4963645;28;20034;-80
2021/03/30 03:01:20;;;;;;;;;;;9.30;99.90;;;;;;4960741;28;20110;-80
2021/03/30 03:03:47;;;;;;;1.88;1.50;;;9.20;99.90;;;;;;4965982;28;20385;-80
2021/03/30 03:06:16;;;;;;;0.13;0.13;;;9.30;99.90;;;;;;4961314;28;20048;-80
2021/03/30 03:08:42;;;;;;;0.13;0.13;;;9.20;99.90;;;;;;4966363;28;20034;-80
2021/03/30 03:11:09;;;;;;;0.43;0.43;;;9.20;99.90;;;;;;4963535;28;20113;-81
2021/03/30 03:13:37;;;;;;;1.02;0.52;;;9.50;99.90;;;;;;4967307;28;20023;-80
2021/03/30 03:16:03;;;;;;;0.73;0.57;;;9.50;99.90;;;;;;4963389;28;20023;-80
2021/03/30 03:18:31;;;;;;;0.30;0.30;;;9.40;99.90;;;;;;4960606;28;20066;-80
2021/03/30 03:20:58;;;;;;;0.10;0.10;;;9.40;99.90;;;;;;4966469;28;20277;-80
2021/03/30 03:23:24;;;;;;;8.52;2.45;;;9.20;99.90;;;;;;4964794;28;20023;-80
2021/03/30 03:25:49;;;;;;;0.10;0.10;;;9.10;99.90;;;;;;4964950;28;20125;-80
2021/03/30 03:28:15;;;;;;;0.60;0.55;;;9.00;99.90;;;;;;4966655;28;20027;-80
2021/03/30 03:30:42;;;;;;;0.22;0.22;;;8.90;99.90;;;;;;4964941;28;20120;-80
2021/03/30 03:33:13;;;;;;;0.13;0.13;;;8.80;99.90;;;;;;4970641;28;20105;-80
2021/03/30 03:35:40;;;;;;;0.50;0.50;;;8.60;99.90;;;;;;4969953;28;20047;-79
2021/03/30 03:38:06;;;;;;;0.35;0.35;;;8.60;99.90;;;;;;4964479;28;20034;-79
2021/03/30 03:40:33;;;;;;;1.38;1.17;;;8.80;99.90;;;;;;4971826;28;20030;-79
2021/03/30 03:43:00;;;;;;;0.32;0.32;;;8.80;99.90;;;;;;4970369;28;20390;-80
2021/03/30 03:45:25;;;;;;;0.30;0.30;;;8.70;99.90;;;;;;4971717;28;20046;-79
2021/03/30 03:47:52;;;;;;;0.25;0.25;;;8.70;99.90;;;;;;4959013;28;20030;-79
2021/03/30 03:50:19;;;;;;;0.20;0.20;;;8.60;99.90;;;;;;4961314;28;20462;-79
2021/03/30 03:52:47;;;;;;;;;;;8.90;99.90;;;;;;4965180;28;20830;-79
2021/03/30 03:55:15;;;;;;;2.75;0.55;;;8.70;99.90;;;;;;4970236;28;19914;-79
2021/03/30 03:58:05;;;;;;;0.10;0.10;;;8.60;99.90;;;;;;4961300;28;20050;-79
2021/03/30 04:00:31;;;;;;;0.30;0.30;;;8.50;99.90;;;;;;4966894;28;20038;-79
2021/03/30 04:03:01;;;;;;;0.20;0.20;;;8.30;99.90;;;;;;4958384;28;20035;-79
2021/03/30 04:05:40;;;;;;;0.10;0.10;;;8.20;99.90;;;;;;4966810;28;20120;-80
2021/03/30 04:08:10;;;;;;;0.20;0.20;;;8.30;99.90;;;;;;4961638;28;20027;-80
2021/03/30 04:10:38;;;;;;;0.30;0.30;;;8.30;99.90;;;;;;4959995;28;20045;-80
2021/03/30 04:13:05;;;;;;;0.10;0.10;;;8.10;99.90;;;;;;4964095;28;20050;-79
2021/03/30 04:15:31;;;;;;;;;;;8.10;99.90;;;;;;4969421;28;20031;-79
2021/03/30 04:17:57;;;;;;;0.20;0.20;;;8.20;99.90;;;;;;4966277;28;20036;-79
2021/03/30 04:20:24;;;;;;;0.17;0.17;;;8.30;99.90;;;;;;4967946;28;20034;-80
2021/03/30 04:22:55;;;;;;;0.43;0.43;;;8.00;99.90;;;;;;4964624;28;20920;-80
2021/03/30 04:25:22;;;;;;;0.20;0.20;;;8.10;99.90;;;;;;4960960;28;20388;-79
2021/03/30 04:27:48;;;;;;;3.65;1.45;;;8.40;99.90;;;;;;4966539;28;20106;-79
2021/03/30 04:30:14;;;;;;;0.20;0.20;;;8.40;99.90;;;;;;4960620;28;20050;-80
2021/03/30 04:32:41;;;;;;;1.30;1.05;;;8.40;99.90;;;;;;4971248;28;20115;-79
2021/03/30 04:35:08;;;;;;;0.10;0.10;;;8.30;99.90;;;;;;4956458;28;20035;-79
2021/03/30 04:37:34;;;;;;;0.17;0.15;;;8.10;99.90;;;;;;4960690;28;20070;-79
2021/03/30 04:40:00;;;;;;;1.75;1.02;;;8.20;99.90;;;;;;4969346;28;20031;-79
2021/03/30 04:42:25;;;;;;;1.83;0.68;;;8.10;99.90;;;;;;4962500;28;20038;-80
2021/03/30 04:44:51;;;;;;;0.22;0.17;;;7.90;99.90;;;;;;4965952;28;20031;-80
2021/03/30 04:47:18;;;;;;;0.10;0.10;;;7.70;99.90;;;;;;4970981;28;20034;-79
2021/03/30 04:49:44;;;;;;;0.47;0.47;;;7.60;99.90;;;;;;4970518;28;20104;-80
2021/03/30 04:52:10;;;;;;;0.20;0.20;;;7.80;99.90;;;;;;4970439;28;20111;-80
2021/03/30 04:54:36;;;;;;;1.67;1.17;;;7.80;99.90;;;;;;4964288;28;20051;-79
2021/03/30 04:57:02;;;;;;;0.20;0.20;;;7.70;99.90;;;;;;4969400;28;20035;-80
2021/03/30 04:59:27;;;;;;;0.17;0.17;;;7.60;99.90;;;;;;4967975;28;20039;-79
2021/03/30 05:01:53;;;;;;;0.17;0.17;;;7.70;99.90;;;;;;4965664;28;20062;-80
2021/03/30 05:04:19;;;;;;;0.35;0.35;;;7.40;99.90;;;;;;4969511;28;20117;-80
2021/03/30 05:07:01;;;;;;;0.25;0.22;;;7.40;99.90;;;;;;4968993;28;20105;-80
2021/03/30 05:09:27;;;;;;;0.60;0.60;;;7.60;99.90;;;;;;4962684;28;20031;-80
2021/03/30 05:11:52;;;;;;;0.57;0.50;;;7.50;99.90;;;;;;4968774;28;20031;-79
2021/03/30 05:14:18;;;;;;;0.15;0.15;;;7.60;99.90;;;;;;4961628;28;20029;-79
2021/03/30 05:16:44;;;;;;;0.55;0.38;;;7.70;99.90;;;;;;4968088;28;20030;-79
2021/03/30 05:19:10;;;;;;;0.65;0.65;;;7.50;99.90;;;;;;4954238;28;20041;-80
2021/03/30 05:21:35;;;;;;;0.13;0.13;;;7.50;99.90;;;;;;4961912;28;20130;-79
2021/03/30 05:24:01;;;;;;;0.10;0.10;;;7.50;99.90;;;;;;4969068;28;20106;-79
2021/03/30 05:26:27;;;;;;;0.35;0.30;;;7.70;99.90;;;;;;4962165;28;20066;-80
2021/03/30 05:28:53;;;;;;;0.50;0.50;;;7.60;99.90;;;;;;4959762;28;20119;-80
2021/03/30 05:31:18;;;;;;;0.10;0.10;;;7.50;99.90;;;;;;4973607;28;20493;-80
2021/03/30 05:33:44;;;;;;;1.55;1.00;;;7.50;99.90;;;;;;4965008;28;20509;-80
2021/03/30 05:36:10;;;;;;;7.13;0.60;;;7.40;99.90;;;;;;4968282;28;20754;-79
2021/03/30 05:38:36;;;;;;;0.15;0.15;;;7.30;99.90;;;;;;4966671;28;20086;-79
2021/03/30 05:41:03;;;;;;;0.10;0.10;;;7.40;99.90;;;;;;4969356;28;20581;-80
2021/03/30 05:43:30;;;;;;;0.10;0.10;;;7.50;99.90;;;;;;4964424;28;20035;-80
2021/03/30 05:46:01;;;;;;;0.22;0.22;;;7.60;99.90;;;;;;4962100;28;20093;-80
2021/03/30 05:48:29;;;;;;;0.00;0.00;;;7.50;99.90;;;;;;4958830;28;20819;-80
2021/03/30 05:50:57;;;;;;;0.10;0.10;;;7.70;99.90;;;;;;4962696;28;20023;-80
2021/03/30 05:53:24;;;;;;;0.10;0.10;;;8.00;99.90;;;;;;4960950;28;20565;-80
2021/03/30 05:56:00;;;;;;;0.25;0.25;;;8.40;99.90;;;;;;4957685;28;20033;-79
2021/03/30 05:58:31;;;;;;;2.53;1.90;;;8.90;99.90;;;;;;4954387;28;20031;-80
2021/03/30 06:01:01;;;;;;;2.30;1.63;;;9.10;99.90;;;;;;4963563;28;20026;-80
2021/03/30 06:03:28;;;;;;;0.20;0.20;;;9.30;99.90;;;;;;4966986;28;20034;-81
2021/03/30 06:05:57;;;;;;;1.98;0.90;;;9.50;99.90;;;;;;4967942;28;20119;-81
2021/03/30 06:08:30;;;;;;;0.88;0.88;;;9.50;99.90;;;;;;4964326;28;20530;-80
2021/03/30 06:10:59;;;;;;;0.15;0.08;;;9.70;99.90;;;;;;4957223;28;20027;-81
2021/03/30 06:13:48;;;;;;;0.30;0.30;;;9.90;99.90;;;;;;4959277;28;20015;-80
2021/03/30 06:16:24;;;;;;;2.45;0.52;;;9.90;99.90;;;;;;4959265;28;20026;-79
2021/03/30 06:19:20;;;;;;;0.55;0.55;;;10.10;99.90;;;;;;4957589;28;20027;-80
2021/03/30 06:21:58;;;;;;;0.22;0.22;;;10.40;99.90;;;;;;4958638;28;20034;-80
2021/03/30 06:24:24;;;;;;;0.40;0.40;;;10.70;99.90;;;;;;4963864;28;20113;-81
2021/03/30 06:26:53;;;;;;;1.35;0.90;;;10.90;99.90;;;;;;4956119;28;20117;-80
2021/03/30 06:29:36;;;;;;;0.20;0.20;;;11.10;99.90;;;;;;4959944;28;20079;-81
2021/03/30 06:32:10;;;;;;;0.10;0.10;;;11.40;99.90;;;;;;4966056;28;20039;-80
2021/03/30 06:34:37;;;;;;;3.63;0.47;;;11.60;99.90;;;;;;4956410;28;20106;-80
2021/03/30 06:37:26;;;;;;;0.30;0.30;;;11.70;99.90;;;;;;4957568;28;20039;-80
2021/03/30 06:39:53;;;;;;;0.10;0.10;;;11.90;99.90;;;;;;4958310;28;20402;-80
2021/03/30 06:45:13;;;;;;;0.10;0.10;;;12.30;99.90;;;;;;4960005;28;20026;-80
2021/03/30 06:47:40;;;;;;;0.40;0.40;;;12.60;99.90;;;;;;4962034;28;20043;-81
2021/03/30 06:50:16;;;;;;;0.20;0.20;;;13.10;99.90;;;;;;4963541;28;20027;-80
2021/03/30 06:52:42;;;;;;;0.10;0.10;;;13.30;99.90;;;;;;4965766;28;20054;-80
2021/03/30 06:55:10;;;;;;;0.10;0.10;;;13.70;99.90;;;;;;4965233;28;20054;-80
2021/03/30 06:57:41;;;;;;;0.75;0.75;;;13.60;99.90;;;;;;4963377;28;20047;-80
2021/03/30 07:00:29;;;;;;;0.22;0.22;;;13.80;99.90;;;;;;4961062;28;20035;-81
2021/03/30 07:02:58;;;;;;;2.90;1.08;;;13.70;99.90;;;;;;4961909;28;20038;-80
2021/03/30 07:05:34;;;;;;;0.10;0.10;;;13.70;99.90;;;;;;4963285;28;20041;-80
2021/03/30 07:08:09;;;;;;;0.68;0.32;;;14.00;99.90;;;;;;4967622;28;20088;-81
2021/03/30 07:10:38;;;;;;;0.30;0.30;;;14.50;99.90;;;;;;4957092;28;20158;-80
2021/03/30 07:13:05;;;;;;;1.90;0.85;;;14.80;99.90;;;;;;4963511;28;20518;-80
2021/03/30 07:15:31;;;;;;;0.15;0.13;;;15.00;99.90;;;;;;4961276;28;20209;-80
2021/03/30 07:18:03;;;;;;;1.55;1.45;;;15.00;99.90;;;;;;4967372;28;20042;-80
2021/03/30 07:20:32;;;;;;;0.38;0.35;;;15.20;99.90;;;;;;4965688;28;20516;-81
2021/03/30 07:23:02;;;;;;;1.48;1.35;;;15.30;99.90;;;;;;4965085;28;20027;-80
2021/03/30 07:25:28;;;;;;;0.52;0.52;;;16.00;99.90;;;;;;4957233;28;20029;-80
2021/03/30 07:28:02;;;;;;;0.30;0.30;;;16.30;99.90;;;;;;4964394;28;20468;-80
2021/03/30 07:30:29;;;;;;;0.25;0.25;;;16.60;99.90;;;;;;4966380;28;20051;-80
2021/03/30 07:33:13;;;;;;;0.00;0.00;;;16.80;99.60;;;;;;4960716;28;20066;-80
2021/03/30 07:35:40;;;;;;;0.65;0.17;;;17.10;98.80;;;;;;4960076;28;20058;-80
2021/03/30 07:38:20;;;;;;;2.55;1.55;;;17.30;98.90;;;;;;4958527;28;20475;-80
2021/03/30 07:40:47;;;;;;;1.85;1.10;;;17.10;98.80;;;;;;4958375;28;20118;-80
2021/03/30 07:43:24;;;;;;;0.47;0.47;;;17.60;98.00;;;;;;4958154;28;20062;-80
2021/03/30 07:45:51;;;;;;;;;;;18.20;97.40;;;;;;4957997;28;20760;-80
2021/03/30 07:48:18;;;;;;;0.63;0.63;;;18.80;96.70;;;;;;4958534;28;19956;-80
2021/03/30 07:51:08;;;;;;;0.43;0.35;;;18.90;96.50;;;;;;4964914;28;20047;-80
2021/03/30 07:54:00;;;;;;;0.22;0.20;;;19.50;95.60;;;;;;4960118;28;20027;-80
2021/03/30 07:56:30;;;;;;;1.15;0.98;;;19.40;94.80;;;;;;4959291;28;20023;-80
2021/03/30 07:58:58;;;;;;;13.48;0.90;;;20.00;94.20;;;;;;4964310;28;20030;-81
2021/03/30 08:01:26;;;;;;;0.43;0.43;;;20.50;94.10;;;;;;4955711;28;20110;-80
2021/03/30 08:03:54;;;;;;;10.43;0.32;;;20.60;93.40;;;;;;4963145;28;20030;-80
2021/03/30 08:06:24;;;;;;;2.22;1.55;;;20.40;93.90;;;;;;4954297;28;20034;-80
2021/03/30 08:08:58;;;;;;;1.13;1.02;;;20.30;93.50;;;;;;4958049;28;20034;-80
2021/03/30 08:11:45;;;;;;;0.77;0.63;;;20.80;92.70;;;;;;4960873;28;20174;-80
2021/03/30 08:14:19;;;;;;;2.13;0.93;;;21.60;92.10;;;;;;4965754;28;20019;-80
2021/03/30 08:16:51;;;;;;;7.10;0.40;;;22.50;90.20;;;;;;4962954;28;20031;-80
2021/03/30 08:19:19;;;;;;;4.13;1.00;;;22.80;90.10;;;;;;4960028;28;20149;-81
2021/03/30 08:22:02;;;;;;;12.50;1.23;;;23.40;87.70;;;;;;4965796;28;20061;-81
2021/03/30 08:24:48;;;;;;;0.20;0.20;;;24.10;85.00;;;;;;4965963;28;20071;-81
2021/03/30 08:27:38;;;;;;;0.38;0.38;;;24.20;84.30;;;;;;4964585;28;20027;-81
2021/03/30 08:30:16;;;;;;;0.10;0.10;;;24.00;83.80;;;;;;4959446;28;20109;-81
2021/03/30 08:32:47;;;;;;;1.52;0.45;;;24.40;82.20;;;;;;4957531;28;20510;-81
2021/03/30 08:35:28;;;;;;;0.68;0.28;;;24.70;81.60;;;;;;4969246;28;20038;-80
2021/03/30 08:37:54;;;;;;;0.82;0.57;;;24.90;80.40;;;;;;4961137;28;20563;-80
2021/03/30 08:40:35;;;;;;;3.88;0.38;;;25.10;79.50;;;;;;4964995;28;20122;-81
2021/03/30 08:43:13;;;;;;;0.60;0.60;;;25.40;78.50;;;;;;4964734;28;20085;-81
2021/03/30 08:46:13;;;;;;;0.47;0.28;;;26.20;76.50;;;;;;4962701;28;20027;-81
2021/03/30 08:48:43;;;;;;;0.30;0.30;;;26.70;75.40;;;;;;4964384;28;20019;-81
2021/03/30 08:51:15;;;;;;;0.57;0.55;;;26.50;73.80;;;;;;4962195;28;20026;-80
2021/03/30 08:53:41;;;;;;;0.10;0.10;;;27.40;69.40;;;;;;4955605;28;20026;-81
2021/03/30 08:56:10;;;;;;;0.20;0.20;;;27.90;68.40;;;;;;4962641;28;20073;-81
2021/03/30 08:58:44;;;;;;;0.30;0.28;;;28.20;66.00;;;;;;4961706;28;20035;-81
2021/03/30 09:01:10;;;;;;;0.00;0.00;;;27.30;70.30;;;;;;4966588;28;20027;-81
2021/03/30 09:03:37;;;;;;;1.25;0.35;;;27.00;69.70;;;;;;4956909;28;20029;-81
2021/03/30 09:06:03;;;;;;;1.88;1.00;;;26.70;66.50;;;;;;4961829;28;20776;-81
2021/03/30 09:08:42;;;;;;;0.20;0.20;;;28.70;63.90;;;;;;4966819;28;20065;-80
2021/03/30 09:11:25;;;;;;;1.10;0.17;;;28.10;66.30;;;;;;4956350;28;20021;-81
2021/03/30 09:13:58;;;;;;;0.70;0.40;;;30.00;59.50;;;;;;4968689;28;20114;-81
2021/03/30 09:16:24;;;;;;;0.63;0.63;;;29.10;61.30;;;;;;4952914;28;20031;-81
2021/03/30 09:18:51;;;;;;;1.67;0.88;;;27.80;64.10;;;;;;4960508;28;20033;-80
2021/03/30 09:21:21;;;;;;;0.38;0.38;;;28.30;62.20;;;;;;4956611;28;20078;-81
2021/03/30 09:23:48;;;;;;;1.23;0.90;;;31.20;52.60;;;;;;4961775;28;20035;-81
2021/03/30 09:26:17;;;;;;;;;;;29.00;49.00;;;;;;4967702;28;20049;-81
2021/03/30 09:28:43;;;;;;;0.73;0.73;;;30.10;48.50;;;;;;4958122;28;19918;-81
2021/03/30 09:31:10;;;;;;;;;;;32.70;49.70;;;;;;4962332;28;20031;-81
2021/03/30 09:33:36;;;;;;;0.20;0.20;;;31.90;42.40;;;;;;4959170;28;20491;-81
2021/03/30 09:36:09;;;;;;;0.10;0.10;;;31.30;44.00;;;;;;4969472;28;20131;-81
2021/03/30 09:38:52;;;;;;;1.23;0.70;;;28.00;49.30;;;;;;4963037;28;20042;-81
2021/03/30 09:41:35;;;;;;;0.55;0.43;;;27.20;52.40;;;;;;4953361;28;20031;-80
2021/03/30 09:44:02;;;;;;;9.77;0.93;;;28.10;49.60;;;;;;4957274;28;20041;-81
2021/03/30 09:46:28;;;;;;;1.45;0.95;;;28.00;47.40;;;;;;4959972;28;20078;-81
2021/03/30 09:48:55;;;;;;;1.58;1.02;;;27.20;52.20;;;;;;4967313;28;20117;-80
2021/03/30 09:51:21;;;;;;;3.50;1.15;;;28.90;49.40;;;;;;4963394;28;20034;-81
2021/03/30 09:53:47;;;;;;;0.75;0.38;;;32.50;42.10;;;;;;4967942;28;20039;-81
2021/03/30 09:56:21;;;;;;;5.17;0.53;;;32.60;38.10;;;;;;4963501;28;20034;-81
2021/03/30 09:58:47;;;;;;;3.13;1.48;;;33.80;48.30;;;;;;4966521;28;20027;-81
2021/03/30 10:01:13;;;;;;;0.20;0.20;;;32.20;44.10;;;;;;4967895;28;20035;-81
2021/03/30 10:03:39;;;;;;;0.22;0.22;;;33.80;36.20;;;;;;4965550;28;20054;-81
2021/03/30 10:06:28;;;;;;;0.40;0.28;;;35.00;34.10;;;;;;4962654;28;20106;-81
2021/03/30 10:09:04;;;;;;;0.55;0.55;;;33.90;30.40;;;;;;4964567;28;20062;-80
2021/03/30 10:11:30;;;;;;;3.13;1.60;;;34.40;33.70;;;;;;4968989;28;20797;-80
2021/03/30 10:14:16;;;;;;;0.15;0.15;;;34.70;33.10;;;;;;4966844;28;20027;-80
2021/03/30 10:16:42;;;;;;;5.50;0.57;;;32.90;33.80;;;;;;4959373;28;20038;-81
2021/03/30 10:19:09;;;;;;;;;;;32.30;31.60;;;;;;4967678;28;20034;-80
2021/03/30 10:21:37;;;;;;;;;;;32.00;34.00;;;;;;4969445;28;19917;-81
2021/03/30 10:24:18;;;;;;;0.35;0.35;;;30.50;36.60;;;;;;4968245;28;20003;-81
2021/03/30 10:27:03;;;;;;;0.55;0.45;;;29.60;38.10;;;;;;4968978;28;20517;-81
2021/03/30 10:29:42;;;;;;;0.03;0.03;;;30.60;34.90;;;;;;4958607;28;20567;-81
2021/03/30 10:32:15;;;;;;;0.20;0.20;;;31.60;35.20;;;;;;4960867;28;20027;-81
2021/03/30 10:34:42;;;;;;;6.50;0.15;;;31.40;35.10;;;;;;4957793;28;20031;-81
2021/03/30 10:37:11;;;;;;;0.10;0.10;;;30.00;35.50;;;;;;4967884;28;20027;-80
2021/03/30 10:39:42;;;;;;;1.75;0.65;;;30.20;34.50;;;;;;4960064;28;20037;-81
2021/03/30 10:42:08;;;;;;;0.80;0.63;;;31.90;33.50;;;;;;4966324;28;20082;-81
2021/03/30 10:44:39;;;;;;;0.35;0.32;;;31.20;37.80;;;;;;4968216;28;20030;-81
2021/03/30 10:47:29;;;;;;;0.40;0.40;;;33.00;33.90;;;;;;4967320;28;20043;-80
2021/03/30 10:49:55;;;;;;;1.55;0.75;;;30.80;38.30;;;;;;4959943;28;20033;-80
2021/03/30 10:52:25;;;;;;;0.50;0.50;;;30.60;31.90;;;;;;4967988;28;20027;-81
2021/03/30 10:54:53;;;;;;;1.65;0.85;;;34.10;30.90;;;;;;4966809;28;20031;-80
2021/03/30 10:57:21;;;;;;;0.20;0.20;;;33.00;33.10;;;;;;4960982;28;20069;-80
2021/03/30 10:59:47;;;;;;;1.42;1.33;;;34.70;29.10;;;;;;4968378;28;20699;-80
2021/03/30 11:02:14;;;;;;;0.00;0.00;;;32.30;33.60;;;;;;4967736;28;20035;-80
2021/03/30 11:04:41;;;;;;;0.50;0.50;;;33.80;29.30;;;;;;4968101;28;20031;-80
2021/03/30 11:07:08;;;;;;;0.13;0.13;;;31.70;29.60;;;;;;4967387;28;20022;-80
2021/03/30 11:09:34;;;;;;;2.15;0.57;;;32.00;28.20;;;;;;4968154;28;20062;-80
2021/03/30 11:12:00;;;;;;;2.93;1.93;;;33.00;30.00;;;;;;4967976;28;20084;-80
2021/03/30 11:14:27;;;;;;;3.10;1.80;;;32.60;33.70;;;;;;4967469;28;20109;-81
2021/03/30 11:16:53;;;;;;;;;;;30.10;32.30;;;;;;4968859;28;20109;-81
2021/03/30 11:19:19;;;;;;;0.57;0.38;;;30.50;32.20;;;;;;4967812;28;19913;-81
2021/03/30 11:21:45;;;;;;;0.80;0.43;;;33.00;31.70;;;;;;4967892;28;20030;-80
2021/03/30 11:24:19;;;;;;;0.05;0.05;;;32.50;32.50;;;;;;4967798;28;20058;-80
2021/03/30 11:26:49;;;;;;;0.43;0.30;;;31.80;28.60;;;;;;4965740;28;20706;-81
2021/03/30 11:29:23;;;;;;;0.08;0.08;;;32.20;34.20;;;;;;4967479;28;20051;-81
2021/03/30 11:34:26;;;;;;;0.60;0.60;;;28.10;35.50;;;;;;4969924;28;20038;-81
2021/03/30 11:37:05;;;;;;;5.72;0.63;;;27.80;38.40;;;;;;4966959;28;20114;-80
2021/03/30 11:39:31;;;;;;;0.30;0.30;;;29.30;35.70;;;;;;4965006;28;20413;-81
2021/03/30 11:41:57;;;;;;;0.40;0.40;;;28.40;37.50;;;;;;4968269;28;20034;-81
2021/03/30 11:44:23;;;;;;;0.20;0.20;;;24.50;42.20;;;;;;4966235;28;20096;-80
2021/03/30 11:46:49;;;;;;;2.53;0.90;;;24.00;45.00;;;;;;4967210;28;20027;-80
2021/03/30 11:49:14;;;;;;;0.27;0.27;;;23.90;44.60;;;;;;4968332;28;20034;-80
2021/03/30 11:51:40;;;;;;;0.10;0.10;;;23.80;46.10;;;;;;4956682;28;20035;-81
2021/03/30 11:54:06;;;;;;;0.20;0.20;;;23.70;46.10;;;;;;4963471;28;20394;-81
2021/03/30 11:56:32;;;;;;;1.85;1.25;;;23.80;46.50;;;;;;4961350;28;20069;-81
2021/03/30 11:58:57;;;;;;;0.67;0.67;;;23.80;47.20;;;;;;4966320;28;20208;-81
2021/03/30 12:01:23;;;;;;;0.27;0.27;;;23.60;47.60;;;;;;4967870;28;20035;-81
2021/03/30 12:03:49;;;;;;;3.20;1.13;;;23.70;46.30;;;;;;4968127;28;20050;-80
2021/03/30 12:06:14;;;;;;;0.63;0.50;;;23.60;46.60;;;;;;4968229;28;20035;-80
2021/03/30 12:08:40;;;;;;;0.40;0.40;;;23.50;46.40;;;;;;4961254;28;20097;-80
2021/03/30 12:11:06;;;;;;;0.03;0.03;;;23.10;47.30;;;;;;4962092;28;20164;-80
2021/03/30 12:13:37;;;;;;;1.50;1.23;;;23.50;48.40;;;;;;4960647;28;20038;-81
2021/03/30 12:16:03;;;;;;;0.52;0.52;;;23.50;47.90;;;;;;4960147;28;20267;-80
2021/03/30 12:18:29;;;;;;;1.38;0.80;;;23.70;48.50;;;;;;4961431;28;20042;-81
2021/03/30 12:20:55;;;;;;;2.08;0.40;;;23.70;47.40;;;;;;4966062;28;20089;-81
2021/03/30 12:23:21;;;;;;;0.37;0.37;;;23.50;48.00;;;;;;4965837;28;20675;-80
2021/03/30 12:25:48;;;;;;;16.77;2.35;;;23.60;48.20;;;;;;4960313;28;20032;-81
2021/03/30 12:28:14;;;;;;;3.05;1.48;;;23.60;49.00;;;;;;4965203;28;20097;-80
2021/03/30 12:30:40;;;;;;;7.75;1.10;;;23.60;48.70;;;;;;4965317;28;20047;-80
2021/03/30 12:33:06;;;;;;;0.70;0.40;;;23.50;48.70;;;;;;4968510;28;20019;-80
2021/03/30 12:35:32;;;;;;;0.80;0.75;;;23.30;49.70;;;;;;4966376;28;20110;-80
2021/03/30 12:37:57;;;;;;;0.63;0.20;;;23.30;48.80;;;;;;4965314;28;20126;-80
2021/03/30 12:40:23;;;;;;;1.40;1.07;;;23.10;48.70;;;;;;4968168;28;20050;-80
2021/03/30 12:42:51;;;;;;;0.27;0.27;;;23.20;48.90;;;;;;4963992;28;20045;-80
2021/03/30 12:45:18;;;;;;;7.57;0.60;;;23.30;49.20;;;;;;4965485;28;20487;-80
2021/03/30 12:47:44;;;;;;;0.68;0.45;;;23.30;49.50;;;;;;4966665;28;20800;-80
2021/03/30 12:50:11;;;;;;;1.67;0.75;;;23.20;48.90;;;;;;4961271;28;20023;-81
2021/03/30 12:52:37;;;;;;;1.73;0.68;;;23.30;50.10;;;;;;4965642;28;20114;-81
2021/03/30 12:55:06;;;;;;;0.77;0.57;;;23.50;49.20;;;;;;4964116;28;20153;-80
2021/03/30 12:57:33;;;;;;;0.65;0.60;;;23.30;49.60;;;;;;4963346;28;20274;-80
2021/03/30 12:59:59;;;;;;;;;;;23.40;50.70;;;;;;4957769;28;20022;-80
2021/03/30 13:02:25;;;;;;;0.10;0.10;;;23.20;49.00;;;;;;4967317;28;19916;-81
2021/03/30 13:04:51;;;;;;;1.55;0.50;;;23.10;49.80;;;;;;4962783;28;20046;-80
2021/03/30 13:07:19;;;;;;;0.07;0.07;;;23.20;50.30;;;;;;4966875;28;20030;-81
2021/03/30 13:09:48;;;;;;;0.20;0.20;;;23.30;50.30;;;;;;4962251;28;20031;-81